sensor_id;sensor_type;location;lat;lon;timestamp;P1;durP1;ratioP1;P2;durP2;ratioP2
12972;SDS011;6551;51.056;9.466;2023-04-03T00:01:16;4.83;;;1.20;;
12972;SDS011;6551;51.056;9.466;2023-04-03T00:03:44;2.60;;;0.90;;
12972;SDS011;6551;51.056;9.466;2023-04-03T00:06:10;5.83;;;1.00;;
12972;SDS011;6551;51.056;9.466;2023-04-03T00:08:38;3.27;;;1.00;;
12972;SDS011;6551;51.056;9.466;2023-04-03T00:11:05;2.27;;;0.90;;
12972;SDS011;6551;51.056;9.466;2023-04-03T00:13:31;4.57;;;1.33;;
12972;SDS011;6551;51.056;9.466;2023-04-03T00:15:59;2.30;;;0.90;;
12972;SDS011;6551;51.056;9.466;2023-04-03T00:18:25;4.17;;;0.97;;
12972;SDS011;6551;51.056;9.466;2023-04-03T00:20:53;2.80;;;1.00;;
12972;SDS011;6551;51.056;9.466;2023-04-03T00:23:19;4.27;;;1.10;;
12972;SDS011;6551;51.056;9.466;2023-04-03T00:25:45;2.13;;;1.10;;
12972;SDS011;6551;51.056;9.466;2023-04-03T00:28:11;3.03;;;1.10;;
12972;SDS011;6551;51.056;9.466;2023-04-03T00:30:37;3.23;;;1.20;;
12972;SDS011;6551;51.056;9.466;2023-04-03T00:33:02;4.23;;;1.47;;
12972;SDS011;6551;51.056;9.466;2023-04-03T00:35:31;4.00;;;1.17;;
12972;SDS011;6551;51.056;9.466;2023-04-03T00:38:00;5.77;;;1.10;;
12972;SDS011;6551;51.056;9.466;2023-04-03T00:40:27;2.87;;;1.00;;
12972;SDS011;6551;51.056;9.466;2023-04-03T00:42:59;7.43;;;1.10;;
12972;SDS011;6551;51.056;9.466;2023-04-03T00:45:39;8.83;;;1.33;;
12972;SDS011;6551;51.056;9.466;2023-04-03T00:48:09;2.20;;;1.10;;
12972;SDS011;6551;51.056;9.466;2023-04-03T00:50:42;4.03;;;1.37;;
12972;SDS011;6551;51.056;9.466;2023-04-03T00:53:11;3.60;;;1.23;;
12972;SDS011;6551;51.056;9.466;2023-04-03T00:55:44;4.40;;;1.17;;
12972;SDS011;6551;51.056;9.466;2023-04-03T00:58:13;5.07;;;1.50;;
12972;SDS011;6551;51.056;9.466;2023-04-03T01:00:44;4.30;;;1.17;;
12972;SDS011;6551;51.056;9.466;2023-04-03T01:03:22;1.93;;;0.97;;
12972;SDS011;6551;51.056;9.466;2023-04-03T01:05:47;4.50;;;1.40;;
12972;SDS011;6551;51.056;9.466;2023-04-03T01:08:14;4.80;;;1.30;;
12972;SDS011;6551;51.056;9.466;2023-04-03T01:10:39;5.90;;;2.17;;
12972;SDS011;6551;51.056;9.466;2023-04-03T01:13:27;4.27;;;1.97;;
12972;SDS011;6551;51.056;9.466;2023-04-03T01:15:55;2.67;;;1.50;;
12972;SDS011;6551;51.056;9.466;2023-04-03T01:18:23;6.27;;;1.63;;
12972;SDS011;6551;51.056;9.466;2023-04-03T01:23:40;5.97;;;1.90;;
12972;SDS011;6551;51.056;9.466;2023-04-03T01:26:47;3.13;;;1.60;;
12972;SDS011;6551;51.056;9.466;2023-04-03T01:29:13;2.63;;;1.60;;
12972;SDS011;6551;51.056;9.466;2023-04-03T01:31:58;2.80;;;1.37;;
12972;SDS011;6551;51.056;9.466;2023-04-03T01:34:27;4.27;;;1.53;;
12972;SDS011;6551;51.056;9.466;2023-04-03T01:36:56;4.10;;;1.90;;
12972;SDS011;6551;51.056;9.466;2023-04-03T01:39:24;7.63;;;2.53;;
12972;SDS011;6551;51.056;9.466;2023-04-03T01:41:50;3.67;;;1.63;;
12972;SDS011;6551;51.056;9.466;2023-04-03T01:44:16;5.23;;;1.30;;
12972;SDS011;6551;51.056;9.466;2023-04-03T01:46:41;6.00;;;1.60;;
12972;SDS011;6551;51.056;9.466;2023-04-03T01:49:07;3.80;;;1.50;;
12972;SDS011;6551;51.056;9.466;2023-04-03T01:51:33;3.97;;;1.57;;
12972;SDS011;6551;51.056;9.466;2023-04-03T01:53:59;3.93;;;1.47;;
12972;SDS011;6551;51.056;9.466;2023-04-03T01:56:26;4.50;;;1.90;;
12972;SDS011;6551;51.056;9.466;2023-04-03T01:58:51;2.73;;;1.20;;
12972;SDS011;6551;51.056;9.466;2023-04-03T02:01:18;4.30;;;1.70;;
12972;SDS011;6551;51.056;9.466;2023-04-03T02:03:44;5.50;;;1.57;;
12972;SDS011;6551;51.056;9.466;2023-04-03T02:06:10;3.70;;;1.77;;
12972;SDS011;6551;51.056;9.466;2023-04-03T02:08:35;5.77;;;1.30;;
12972;SDS011;6551;51.056;9.466;2023-04-03T02:11:01;6.20;;;1.80;;
12972;SDS011;6551;51.056;9.466;2023-04-03T02:13:28;4.93;;;1.80;;
12972;SDS011;6551;51.056;9.466;2023-04-03T02:15:55;4.93;;;2.00;;
12972;SDS011;6551;51.056;9.466;2023-04-03T02:18:22;3.87;;;1.47;;
12972;SDS011;6551;51.056;9.466;2023-04-03T02:20:47;6.13;;;1.57;;
12972;SDS011;6551;51.056;9.466;2023-04-03T02:23:14;6.00;;;1.37;;
12972;SDS011;6551;51.056;9.466;2023-04-03T02:25:40;3.37;;;1.53;;
12972;SDS011;6551;51.056;9.466;2023-04-03T02:28:06;4.43;;;2.00;;
12972;SDS011;6551;51.056;9.466;2023-04-03T02:30:33;3.63;;;1.43;;
12972;SDS011;6551;51.056;9.466;2023-04-03T02:32:59;6.43;;;2.07;;
12972;SDS011;6551;51.056;9.466;2023-04-03T02:35:27;4.70;;;1.73;;
12972;SDS011;6551;51.056;9.466;2023-04-03T02:37:54;2.80;;;1.20;;
12972;SDS011;6551;51.056;9.466;2023-04-03T02:40:20;5.17;;;1.50;;
12972;SDS011;6551;51.056;9.466;2023-04-03T02:42:46;4.40;;;1.40;;
12972;SDS011;6551;51.056;9.466;2023-04-03T02:45:12;3.87;;;1.30;;
12972;SDS011;6551;51.056;9.466;2023-04-03T02:47:39;4.47;;;1.30;;
12972;SDS011;6551;51.056;9.466;2023-04-03T02:50:05;3.47;;;1.57;;
12972;SDS011;6551;51.056;9.466;2023-04-03T02:52:31;2.57;;;1.43;;
12972;SDS011;6551;51.056;9.466;2023-04-03T02:54:57;3.83;;;1.50;;
12972;SDS011;6551;51.056;9.466;2023-04-03T02:57:24;3.10;;;1.43;;
12972;SDS011;6551;51.056;9.466;2023-04-03T02:59:49;2.90;;;1.20;;
12972;SDS011;6551;51.056;9.466;2023-04-03T03:02:15;6.20;;;1.27;;
12972;SDS011;6551;51.056;9.466;2023-04-03T03:04:42;8.87;;;1.50;;
12972;SDS011;6551;51.056;9.466;2023-04-03T03:07:08;5.93;;;2.17;;
12972;SDS011;6551;51.056;9.466;2023-04-03T03:09:35;11.73;;;3.20;;
12972;SDS011;6551;51.056;9.466;2023-04-03T03:12:01;8.23;;;2.57;;
12972;SDS011;6551;51.056;9.466;2023-04-03T03:14:28;20.00;;;4.83;;
12972;SDS011;6551;51.056;9.466;2023-04-03T03:16:54;4.43;;;1.60;;
12972;SDS011;6551;51.056;9.466;2023-04-03T03:19:21;3.63;;;1.30;;
12972;SDS011;6551;51.056;9.466;2023-04-03T03:21:46;7.30;;;2.00;;
12972;SDS011;6551;51.056;9.466;2023-04-03T03:24:12;21.57;;;4.77;;
12972;SDS011;6551;51.056;9.466;2023-04-03T03:26:38;18.00;;;4.03;;
12972;SDS011;6551;51.056;9.466;2023-04-03T03:29:03;12.70;;;3.80;;
12972;SDS011;6551;51.056;9.466;2023-04-03T03:31:29;6.23;;;1.77;;
12972;SDS011;6551;51.056;9.466;2023-04-03T03:33:56;11.20;;;2.70;;
12972;SDS011;6551;51.056;9.466;2023-04-03T03:36:23;7.37;;;2.93;;
12972;SDS011;6551;51.056;9.466;2023-04-03T03:38:50;6.20;;;2.20;;
12972;SDS011;6551;51.056;9.466;2023-04-03T03:41:16;5.13;;;1.40;;
12972;SDS011;6551;51.056;9.466;2023-04-03T03:43:41;3.80;;;1.37;;
12972;SDS011;6551;51.056;9.466;2023-04-03T03:46:07;7.33;;;2.37;;
12972;SDS011;6551;51.056;9.466;2023-04-03T03:48:33;7.93;;;2.07;;
12972;SDS011;6551;51.056;9.466;2023-04-03T03:51:00;9.47;;;2.73;;
12972;SDS011;6551;51.056;9.466;2023-04-03T03:53:26;11.53;;;3.93;;
12972;SDS011;6551;51.056;9.466;2023-04-03T03:55:53;11.93;;;4.40;;
12972;SDS011;6551;51.056;9.466;2023-04-03T03:58:18;10.40;;;3.93;;
12972;SDS011;6551;51.056;9.466;2023-04-03T04:00:45;9.43;;;2.60;;
12972;SDS011;6551;51.056;9.466;2023-04-03T04:03:11;5.27;;;2.60;;
12972;SDS011;6551;51.056;9.466;2023-04-03T04:05:37;6.93;;;2.73;;
12972;SDS011;6551;51.056;9.466;2023-04-03T04:08:03;8.67;;;2.20;;
12972;SDS011;6551;51.056;9.466;2023-04-03T04:10:30;6.97;;;2.53;;
12972;SDS011;6551;51.056;9.466;2023-04-03T04:12:56;9.37;;;2.63;;
12972;SDS011;6551;51.056;9.466;2023-04-03T04:15:23;7.50;;;2.40;;
12972;SDS011;6551;51.056;9.466;2023-04-03T04:17:50;8.03;;;2.73;;
12972;SDS011;6551;51.056;9.466;2023-04-03T04:20:16;9.17;;;2.30;;
12972;SDS011;6551;51.056;9.466;2023-04-03T04:22:45;8.53;;;2.33;;
12972;SDS011;6551;51.056;9.466;2023-04-03T04:25:11;7.23;;;2.47;;
12972;SDS011;6551;51.056;9.466;2023-04-03T04:27:37;6.83;;;1.70;;
12972;SDS011;6551;51.056;9.466;2023-04-03T04:30:03;9.13;;;4.03;;
12972;SDS011;6551;51.056;9.466;2023-04-03T04:32:30;28.47;;;11.50;;
12972;SDS011;6551;51.056;9.466;2023-04-03T04:34:55;64.60;;;25.73;;
12972;SDS011;6551;51.056;9.466;2023-04-03T04:37:23;58.93;;;21.83;;
12972;SDS011;6551;51.056;9.466;2023-04-03T04:39:49;17.83;;;7.17;;
12972;SDS011;6551;51.056;9.466;2023-04-03T04:42:16;7.67;;;2.67;;
12972;SDS011;6551;51.056;9.466;2023-04-03T04:44:43;9.00;;;3.57;;
12972;SDS011;6551;51.056;9.466;2023-04-03T04:47:09;7.37;;;3.43;;
12972;SDS011;6551;51.056;9.466;2023-04-03T04:49:35;5.77;;;2.80;;
12972;SDS011;6551;51.056;9.466;2023-04-03T04:52:01;12.40;;;4.27;;
12972;SDS011;6551;51.056;9.466;2023-04-03T04:54:27;8.37;;;3.77;;
12972;SDS011;6551;51.056;9.466;2023-04-03T04:56:54;14.83;;;4.40;;
12972;SDS011;6551;51.056;9.466;2023-04-03T04:59:20;6.50;;;3.07;;
12972;SDS011;6551;51.056;9.466;2023-04-03T05:01:45;8.03;;;3.80;;
12972;SDS011;6551;51.056;9.466;2023-04-03T05:04:11;6.07;;;2.63;;
12972;SDS011;6551;51.056;9.466;2023-04-03T05:06:39;6.07;;;2.80;;
12972;SDS011;6551;51.056;9.466;2023-04-03T05:09:04;11.63;;;3.60;;
12972;SDS011;6551;51.056;9.466;2023-04-03T05:11:30;8.87;;;2.83;;
12972;SDS011;6551;51.056;9.466;2023-04-03T05:13:56;7.50;;;3.03;;
12972;SDS011;6551;51.056;9.466;2023-04-03T05:16:24;6.97;;;2.23;;
12972;SDS011;6551;51.056;9.466;2023-04-03T05:18:50;5.73;;;2.00;;
12972;SDS011;6551;51.056;9.466;2023-04-03T05:21:16;6.50;;;2.17;;
12972;SDS011;6551;51.056;9.466;2023-04-03T05:23:43;4.73;;;1.70;;
12972;SDS011;6551;51.056;9.466;2023-04-03T05:26:09;5.00;;;1.97;;
12972;SDS011;6551;51.056;9.466;2023-04-03T05:28:35;3.97;;;2.00;;
12972;SDS011;6551;51.056;9.466;2023-04-03T05:31:01;6.97;;;2.77;;
12972;SDS011;6551;51.056;9.466;2023-04-03T05:33:28;7.70;;;2.40;;
12972;SDS011;6551;51.056;9.466;2023-04-03T05:35:55;7.27;;;2.10;;
12972;SDS011;6551;51.056;9.466;2023-04-03T05:38:28;6.00;;;2.00;;
12972;SDS011;6551;51.056;9.466;2023-04-03T05:40:55;6.93;;;2.47;;
12972;SDS011;6551;51.056;9.466;2023-04-03T05:43:21;7.00;;;2.50;;
12972;SDS011;6551;51.056;9.466;2023-04-03T05:45:47;7.03;;;2.40;;
12972;SDS011;6551;51.056;9.466;2023-04-03T05:48:12;3.80;;;2.00;;
12972;SDS011;6551;51.056;9.466;2023-04-03T05:50:38;6.77;;;2.53;;
12972;SDS011;6551;51.056;9.466;2023-04-03T05:53:06;6.93;;;2.00;;
12972;SDS011;6551;51.056;9.466;2023-04-03T05:55:46;4.30;;;2.40;;
12972;SDS011;6551;51.056;9.466;2023-04-03T05:58:11;4.07;;;2.33;;
12972;SDS011;6551;51.056;9.466;2023-04-03T06:00:37;4.07;;;2.23;;
12972;SDS011;6551;51.056;9.466;2023-04-03T06:03:04;4.90;;;2.07;;
12972;SDS011;6551;51.056;9.466;2023-04-03T06:05:30;6.53;;;2.40;;
12972;SDS011;6551;51.056;9.466;2023-04-03T06:07:57;5.33;;;2.10;;
12972;SDS011;6551;51.056;9.466;2023-04-03T06:10:24;4.97;;;2.50;;
12972;SDS011;6551;51.056;9.466;2023-04-03T06:12:50;4.83;;;2.30;;
12972;SDS011;6551;51.056;9.466;2023-04-03T06:15:16;7.60;;;2.70;;
12972;SDS011;6551;51.056;9.466;2023-04-03T06:17:42;6.23;;;2.37;;
12972;SDS011;6551;51.056;9.466;2023-04-03T06:20:08;5.40;;;2.57;;
12972;SDS011;6551;51.056;9.466;2023-04-03T06:22:35;3.03;;;1.80;;
12972;SDS011;6551;51.056;9.466;2023-04-03T06:25:01;7.57;;;2.47;;
12972;SDS011;6551;51.056;9.466;2023-04-03T06:27:28;7.57;;;2.50;;
12972;SDS011;6551;51.056;9.466;2023-04-03T06:29:55;4.07;;;1.93;;
12972;SDS011;6551;51.056;9.466;2023-04-03T06:32:21;5.93;;;2.53;;
12972;SDS011;6551;51.056;9.466;2023-04-03T06:34:46;8.93;;;2.40;;
12972;SDS011;6551;51.056;9.466;2023-04-03T06:37:16;4.20;;;1.90;;
12972;SDS011;6551;51.056;9.466;2023-04-03T06:39:45;6.83;;;2.60;;
12972;SDS011;6551;51.056;9.466;2023-04-03T06:42:11;4.67;;;2.13;;
12972;SDS011;6551;51.056;9.466;2023-04-03T06:44:39;4.13;;;1.47;;
12972;SDS011;6551;51.056;9.466;2023-04-03T06:47:08;12.53;;;4.33;;
12972;SDS011;6551;51.056;9.466;2023-04-03T06:49:37;12.27;;;6.57;;
12972;SDS011;6551;51.056;9.466;2023-04-03T06:52:03;4.70;;;1.90;;
12972;SDS011;6551;51.056;9.466;2023-04-03T06:54:30;5.90;;;2.77;;
12972;SDS011;6551;51.056;9.466;2023-04-03T06:56:57;7.33;;;3.10;;
12972;SDS011;6551;51.056;9.466;2023-04-03T06:59:24;22.37;;;11.40;;
12972;SDS011;6551;51.056;9.466;2023-04-03T07:01:51;6.60;;;3.43;;
12972;SDS011;6551;51.056;9.466;2023-04-03T07:04:17;5.30;;;3.10;;
12972;SDS011;6551;51.056;9.466;2023-04-03T07:06:45;6.10;;;2.17;;
12972;SDS011;6551;51.056;9.466;2023-04-03T07:09:11;4.80;;;2.20;;
12972;SDS011;6551;51.056;9.466;2023-04-03T07:11:42;3.40;;;2.37;;
12972;SDS011;6551;51.056;9.466;2023-04-03T07:14:08;6.53;;;2.40;;
12972;SDS011;6551;51.056;9.466;2023-04-03T07:16:34;4.30;;;2.90;;
12972;SDS011;6551;51.056;9.466;2023-04-03T07:19:01;5.60;;;2.50;;
12972;SDS011;6551;51.056;9.466;2023-04-03T07:21:29;6.30;;;2.67;;
12972;SDS011;6551;51.056;9.466;2023-04-03T07:23:57;6.23;;;2.60;;
12972;SDS011;6551;51.056;9.466;2023-04-03T07:26:24;3.73;;;1.57;;
12972;SDS011;6551;51.056;9.466;2023-04-03T07:28:50;4.63;;;2.17;;
12972;SDS011;6551;51.056;9.466;2023-04-03T07:31:16;5.30;;;2.40;;
12972;SDS011;6551;51.056;9.466;2023-04-03T07:33:43;4.20;;;1.90;;
12972;SDS011;6551;51.056;9.466;2023-04-03T07:36:14;5.17;;;1.87;;
12972;SDS011;6551;51.056;9.466;2023-04-03T07:38:45;4.53;;;1.80;;
12972;SDS011;6551;51.056;9.466;2023-04-03T07:41:12;3.93;;;2.43;;
12972;SDS011;6551;51.056;9.466;2023-04-03T07:43:41;7.33;;;2.77;;
12972;SDS011;6551;51.056;9.466;2023-04-03T07:46:07;5.60;;;2.20;;
12972;SDS011;6551;51.056;9.466;2023-04-03T07:48:34;4.77;;;2.07;;
12972;SDS011;6551;51.056;9.466;2023-04-03T07:51:00;3.97;;;1.80;;
12972;SDS011;6551;51.056;9.466;2023-04-03T07:53:28;4.07;;;1.57;;
12972;SDS011;6551;51.056;9.466;2023-04-03T07:55:56;7.17;;;2.10;;
12972;SDS011;6551;51.056;9.466;2023-04-03T07:58:25;6.07;;;1.57;;
12972;SDS011;6551;51.056;9.466;2023-04-03T08:00:51;3.40;;;1.40;;
12972;SDS011;6551;51.056;9.466;2023-04-03T08:03:17;3.63;;;1.60;;
12972;SDS011;6551;51.056;9.466;2023-04-03T08:05:44;4.87;;;1.37;;
12972;SDS011;6551;51.056;9.466;2023-04-03T08:08:12;4.13;;;1.43;;
12972;SDS011;6551;51.056;9.466;2023-04-03T08:10:42;3.87;;;1.57;;
12972;SDS011;6551;51.056;9.466;2023-04-03T08:13:08;3.43;;;1.40;;
12972;SDS011;6551;51.056;9.466;2023-04-03T08:15:35;5.43;;;1.43;;
12972;SDS011;6551;51.056;9.466;2023-04-03T08:18:01;3.20;;;1.60;;
12972;SDS011;6551;51.056;9.466;2023-04-03T08:20:27;3.20;;;1.20;;
12972;SDS011;6551;51.056;9.466;2023-04-03T08:22:53;2.23;;;1.40;;
12972;SDS011;6551;51.056;9.466;2023-04-03T08:25:19;2.13;;;1.30;;
12972;SDS011;6551;51.056;9.466;2023-04-03T08:27:46;3.40;;;1.30;;
12972;SDS011;6551;51.056;9.466;2023-04-03T08:30:11;2.83;;;1.23;;
12972;SDS011;6551;51.056;9.466;2023-04-03T08:32:38;4.40;;;1.30;;
12972;SDS011;6551;51.056;9.466;2023-04-03T08:35:04;4.50;;;1.60;;
12972;SDS011;6551;51.056;9.466;2023-04-03T08:37:30;2.17;;;1.07;;
12972;SDS011;6551;51.056;9.466;2023-04-03T08:40:00;3.53;;;1.20;;
12972;SDS011;6551;51.056;9.466;2023-04-03T08:45:50;2.53;;;0.93;;
12972;SDS011;6551;51.056;9.466;2023-04-03T08:51:09;1.67;;;0.87;;
12972;SDS011;6551;51.056;9.466;2023-04-03T08:53:53;1.37;;;0.80;;
12972;SDS011;6551;51.056;9.466;2023-04-03T08:56:41;1.77;;;0.93;;
12972;SDS011;6551;51.056;9.466;2023-04-03T08:59:10;2.33;;;0.70;;
12972;SDS011;6551;51.056;9.466;2023-04-03T09:01:45;2.47;;;0.80;;
12972;SDS011;6551;51.056;9.466;2023-04-03T09:04:12;1.50;;;0.70;;
12972;SDS011;6551;51.056;9.466;2023-04-03T09:06:44;3.80;;;0.80;;
12972;SDS011;6551;51.056;9.466;2023-04-03T09:09:30;3.30;;;1.00;;
12972;SDS011;6551;51.056;9.466;2023-04-03T09:12:18;8.43;;;1.50;;
12972;SDS011;6551;51.056;9.466;2023-04-03T09:15:02;2.07;;;0.70;;
12972;SDS011;6551;51.056;9.466;2023-04-03T09:23:40;3.20;;;0.80;;
12972;SDS011;6551;51.056;9.466;2023-04-03T09:28:50;2.33;;;0.70;;
12972;SDS011;6551;51.056;9.466;2023-04-03T09:31:20;2.17;;;0.90;;
12972;SDS011;6551;51.056;9.466;2023-04-03T09:33:58;2.53;;;1.10;;
12972;SDS011;6551;51.056;9.466;2023-04-03T09:36:38;3.03;;;1.00;;
12972;SDS011;6551;51.056;9.466;2023-04-03T09:39:25;1.57;;;0.70;;
12972;SDS011;6551;51.056;9.466;2023-04-03T09:42:05;1.93;;;0.60;;
12972;SDS011;6551;51.056;9.466;2023-04-03T09:44:53;1.87;;;0.70;;
12972;SDS011;6551;51.056;9.466;2023-04-03T09:47:34;1.57;;;0.80;;
12972;SDS011;6551;51.056;9.466;2023-04-03T09:52:41;3.53;;;2.10;;
12972;SDS011;6551;51.056;9.466;2023-04-03T09:55:25;5.73;;;2.30;;
12972;SDS011;6551;51.056;9.466;2023-04-03T09:57:59;1.57;;;0.80;;
12972;SDS011;6551;51.056;9.466;2023-04-03T10:03:02;3.87;;;1.03;;
12972;SDS011;6551;51.056;9.466;2023-04-03T10:05:39;2.17;;;1.13;;
12972;SDS011;6551;51.056;9.466;2023-04-03T10:10:41;1.70;;;0.80;;
12972;SDS011;6551;51.056;9.466;2023-04-03T10:13:16;1.73;;;0.83;;
12972;SDS011;6551;51.056;9.466;2023-04-03T10:18:54;2.40;;;1.17;;
12972;SDS011;6551;51.056;9.466;2023-04-03T10:21:50;3.43;;;1.47;;
12972;SDS011;6551;51.056;9.466;2023-04-03T10:36:44;1.70;;;0.70;;
12972;SDS011;6551;51.056;9.466;2023-04-03T10:51:18;1.83;;;0.90;;
12972;SDS011;6551;51.056;9.466;2023-04-03T10:54:12;2.60;;;0.70;;
12972;SDS011;6551;51.056;9.466;2023-04-03T10:57:08;2.63;;;0.50;;
12972;SDS011;6551;51.056;9.466;2023-04-03T11:00:06;1.70;;;0.70;;
12972;SDS011;6551;51.056;9.466;2023-04-03T11:02:48;2.10;;;0.80;;
12972;SDS011;6551;51.056;9.466;2023-04-03T11:05:47;2.20;;;0.87;;
12972;SDS011;6551;51.056;9.466;2023-04-03T11:11:26;3.70;;;1.03;;
12972;SDS011;6551;51.056;9.466;2023-04-03T11:16:46;2.87;;;0.80;;
12972;SDS011;6551;51.056;9.466;2023-04-03T11:19:41;2.27;;;0.70;;
12972;SDS011;6551;51.056;9.466;2023-04-03T11:22:48;1.87;;;0.80;;
12972;SDS011;6551;51.056;9.466;2023-04-03T11:25:20;1.30;;;0.60;;
12972;SDS011;6551;51.056;9.466;2023-04-03T11:27:55;3.03;;;0.70;;
12972;SDS011;6551;51.056;9.466;2023-04-03T11:36:32;1.87;;;0.63;;
12972;SDS011;6551;51.056;9.466;2023-04-03T11:39:19;1.70;;;0.67;;
12972;SDS011;6551;51.056;9.466;2023-04-03T11:42:13;1.67;;;0.77;;
12972;SDS011;6551;51.056;9.466;2023-04-03T11:55:43;2.93;;;0.93;;
12972;SDS011;6551;51.056;9.466;2023-04-03T12:05:57;1.77;;;0.70;;
12972;SDS011;6551;51.056;9.466;2023-04-03T12:11:30;4.13;;;1.00;;
12972;SDS011;6551;51.056;9.466;2023-04-03T12:19:27;1.70;;;0.87;;
12972;SDS011;6551;51.056;9.466;2023-04-03T12:22:06;1.57;;;0.83;;
12972;SDS011;6551;51.056;9.466;2023-04-03T12:24:37;2.37;;;0.93;;
12972;SDS011;6551;51.056;9.466;2023-04-03T12:27:21;3.07;;;0.87;;
12972;SDS011;6551;51.056;9.466;2023-04-03T12:30:20;3.30;;;1.10;;
12972;SDS011;6551;51.056;9.466;2023-04-03T12:33:09;2.80;;;0.77;;
12972;SDS011;6551;51.056;9.466;2023-04-03T12:36:10;1.27;;;0.80;;
12972;SDS011;6551;51.056;9.466;2023-04-03T12:42:18;2.40;;;0.70;;
12972;SDS011;6551;51.056;9.466;2023-04-03T12:45:23;2.17;;;1.00;;
12972;SDS011;6551;51.056;9.466;2023-04-03T12:47:53;2.47;;;0.87;;
12972;SDS011;6551;51.056;9.466;2023-04-03T12:50:24;5.13;;;1.07;;
12972;SDS011;6551;51.056;9.466;2023-04-03T12:53:05;3.67;;;0.87;;
12972;SDS011;6551;51.056;9.466;2023-04-03T12:55:39;2.87;;;1.10;;
12972;SDS011;6551;51.056;9.466;2023-04-03T12:58:15;2.63;;;1.03;;
12972;SDS011;6551;51.056;9.466;2023-04-03T13:00:48;2.33;;;0.80;;
12972;SDS011;6551;51.056;9.466;2023-04-03T13:03:36;2.97;;;0.90;;
12972;SDS011;6551;51.056;9.466;2023-04-03T13:06:11;2.00;;;0.90;;
12972;SDS011;6551;51.056;9.466;2023-04-03T13:08:51;3.53;;;0.93;;
12972;SDS011;6551;51.056;9.466;2023-04-03T13:11:23;2.50;;;1.17;;
12972;SDS011;6551;51.056;9.466;2023-04-03T13:14:03;1.67;;;0.87;;
12972;SDS011;6551;51.056;9.466;2023-04-03T13:16:39;3.40;;;1.00;;
12972;SDS011;6551;51.056;9.466;2023-04-03T13:19:15;3.20;;;1.00;;
12972;SDS011;6551;51.056;9.466;2023-04-03T13:21:43;2.47;;;1.00;;
12972;SDS011;6551;51.056;9.466;2023-04-03T13:24:10;1.57;;;1.20;;
12972;SDS011;6551;51.056;9.466;2023-04-03T13:26:36;2.83;;;0.93;;
12972;SDS011;6551;51.056;9.466;2023-04-03T13:29:03;2.57;;;1.00;;
12972;SDS011;6551;51.056;9.466;2023-04-03T13:31:36;5.00;;;1.03;;
12972;SDS011;6551;51.056;9.466;2023-04-03T13:34:12;3.00;;;1.00;;
12972;SDS011;6551;51.056;9.466;2023-04-03T13:36:46;2.63;;;0.80;;
12972;SDS011;6551;51.056;9.466;2023-04-03T13:39:44;4.73;;;0.97;;
12972;SDS011;6551;51.056;9.466;2023-04-03T13:42:20;1.97;;;0.70;;
12972;SDS011;6551;51.056;9.466;2023-04-03T13:47:43;1.80;;;0.80;;
12972;SDS011;6551;51.056;9.466;2023-04-03T13:53:00;1.63;;;1.10;;
12972;SDS011;6551;51.056;9.466;2023-04-03T13:55:37;2.23;;;0.83;;
12972;SDS011;6551;51.056;9.466;2023-04-03T13:58:22;1.83;;;0.70;;
12972;SDS011;6551;51.056;9.466;2023-04-03T14:01:11;4.53;;;1.03;;
12972;SDS011;6551;51.056;9.466;2023-04-03T14:04:01;2.43;;;1.20;;
12972;SDS011;6551;51.056;9.466;2023-04-03T14:06:38;1.97;;;0.80;;
12972;SDS011;6551;51.056;9.466;2023-04-03T14:09:04;3.13;;;1.10;;
12972;SDS011;6551;51.056;9.466;2023-04-03T14:11:31;3.40;;;1.40;;
12972;SDS011;6551;51.056;9.466;2023-04-03T14:14:00;2.80;;;1.20;;
12972;SDS011;6551;51.056;9.466;2023-04-03T14:16:38;4.97;;;1.20;;
12972;SDS011;6551;51.056;9.466;2023-04-03T14:19:06;2.47;;;1.30;;
12972;SDS011;6551;51.056;9.466;2023-04-03T14:21:44;3.07;;;1.00;;
12972;SDS011;6551;51.056;9.466;2023-04-03T14:24:09;1.63;;;1.00;;
12972;SDS011;6551;51.056;9.466;2023-04-03T14:26:38;3.17;;;1.13;;
12972;SDS011;6551;51.056;9.466;2023-04-03T14:29:05;4.20;;;1.80;;
12972;SDS011;6551;51.056;9.466;2023-04-03T14:31:32;4.97;;;1.87;;
12972;SDS011;6551;51.056;9.466;2023-04-03T14:33:57;3.43;;;1.80;;
12972;SDS011;6551;51.056;9.466;2023-04-03T14:36:25;2.47;;;1.77;;
12972;SDS011;6551;51.056;9.466;2023-04-03T14:38:53;2.73;;;1.97;;
12972;SDS011;6551;51.056;9.466;2023-04-03T14:41:21;2.37;;;1.23;;
12972;SDS011;6551;51.056;9.466;2023-04-03T14:43:51;2.50;;;1.30;;
12972;SDS011;6551;51.056;9.466;2023-04-03T14:46:23;2.57;;;1.23;;
12972;SDS011;6551;51.056;9.466;2023-04-03T14:49:01;2.33;;;0.93;;
12972;SDS011;6551;51.056;9.466;2023-04-03T14:51:29;2.43;;;1.50;;
12972;SDS011;6551;51.056;9.466;2023-04-03T14:53:54;1.80;;;1.00;;
12972;SDS011;6551;51.056;9.466;2023-04-03T14:58:54;1.77;;;1.17;;
12972;SDS011;6551;51.056;9.466;2023-04-03T15:01:26;3.60;;;1.10;;
12972;SDS011;6551;51.056;9.466;2023-04-03T15:03:53;4.07;;;1.50;;
12972;SDS011;6551;51.056;9.466;2023-04-03T15:06:21;3.60;;;1.80;;
12972;SDS011;6551;51.056;9.466;2023-04-03T15:08:48;3.63;;;1.40;;
12972;SDS011;6551;51.056;9.466;2023-04-03T15:11:14;3.83;;;1.30;;
12972;SDS011;6551;51.056;9.466;2023-04-03T15:13:40;2.33;;;1.17;;
12972;SDS011;6551;51.056;9.466;2023-04-03T15:16:10;1.80;;;1.13;;
12972;SDS011;6551;51.056;9.466;2023-04-03T15:18:43;4.73;;;1.30;;
12972;SDS011;6551;51.056;9.466;2023-04-03T15:21:10;4.70;;;1.40;;
12972;SDS011;6551;51.056;9.466;2023-04-03T15:23:37;2.70;;;1.10;;
12972;SDS011;6551;51.056;9.466;2023-04-03T15:26:04;3.73;;;1.30;;
12972;SDS011;6551;51.056;9.466;2023-04-03T15:28:33;5.03;;;1.40;;
12972;SDS011;6551;51.056;9.466;2023-04-03T15:31:03;1.20;;;0.67;;
12972;SDS011;6551;51.056;9.466;2023-04-03T15:33:32;2.40;;;1.30;;
12972;SDS011;6551;51.056;9.466;2023-04-03T15:36:01;3.87;;;0.90;;
12972;SDS011;6551;51.056;9.466;2023-04-03T15:38:27;2.20;;;1.00;;
12972;SDS011;6551;51.056;9.466;2023-04-03T15:40:53;2.70;;;1.33;;
12972;SDS011;6551;51.056;9.466;2023-04-03T15:43:21;3.23;;;1.17;;
12972;SDS011;6551;51.056;9.466;2023-04-03T15:45:47;2.73;;;1.47;;
12972;SDS011;6551;51.056;9.466;2023-04-03T15:48:16;3.83;;;1.70;;
12972;SDS011;6551;51.056;9.466;2023-04-03T15:50:44;1.53;;;0.90;;
12972;SDS011;6551;51.056;9.466;2023-04-03T15:53:11;2.77;;;1.00;;
12972;SDS011;6551;51.056;9.466;2023-04-03T15:55:37;3.10;;;1.00;;
12972;SDS011;6551;51.056;9.466;2023-04-03T15:58:03;3.90;;;1.00;;
12972;SDS011;6551;51.056;9.466;2023-04-03T16:00:30;1.47;;;1.00;;
12972;SDS011;6551;51.056;9.466;2023-04-03T16:03:16;3.23;;;1.10;;
12972;SDS011;6551;51.056;9.466;2023-04-03T16:05:45;3.47;;;1.73;;
12972;SDS011;6551;51.056;9.466;2023-04-03T16:08:11;3.30;;;1.50;;
12972;SDS011;6551;51.056;9.466;2023-04-03T16:10:39;2.90;;;1.40;;
12972;SDS011;6551;51.056;9.466;2023-04-03T16:13:05;3.27;;;1.27;;
12972;SDS011;6551;51.056;9.466;2023-04-03T16:15:32;5.20;;;1.30;;
12972;SDS011;6551;51.056;9.466;2023-04-03T16:18:00;5.27;;;1.40;;
12972;SDS011;6551;51.056;9.466;2023-04-03T16:20:28;2.57;;;1.60;;
12972;SDS011;6551;51.056;9.466;2023-04-03T16:22:56;4.17;;;1.57;;
12972;SDS011;6551;51.056;9.466;2023-04-03T16:25:26;2.33;;;1.30;;
12972;SDS011;6551;51.056;9.466;2023-04-03T16:27:52;2.87;;;1.13;;
12972;SDS011;6551;51.056;9.466;2023-04-03T16:30:19;3.67;;;1.23;;
12972;SDS011;6551;51.056;9.466;2023-04-03T16:32:45;4.27;;;1.43;;
12972;SDS011;6551;51.056;9.466;2023-04-03T16:35:11;2.47;;;1.00;;
12972;SDS011;6551;51.056;9.466;2023-04-03T16:37:37;3.37;;;1.17;;
12972;SDS011;6551;51.056;9.466;2023-04-03T16:40:05;2.63;;;1.00;;
12972;SDS011;6551;51.056;9.466;2023-04-03T16:42:32;4.40;;;1.20;;
12972;SDS011;6551;51.056;9.466;2023-04-03T16:44:59;3.80;;;1.27;;
12972;SDS011;6551;51.056;9.466;2023-04-03T16:47:29;2.80;;;1.20;;
12972;SDS011;6551;51.056;9.466;2023-04-03T16:49:57;2.83;;;1.47;;
12972;SDS011;6551;51.056;9.466;2023-04-03T16:52:24;6.17;;;2.70;;
12972;SDS011;6551;51.056;9.466;2023-04-03T16:54:50;2.80;;;1.53;;
12972;SDS011;6551;51.056;9.466;2023-04-03T16:57:20;3.77;;;1.60;;
12972;SDS011;6551;51.056;9.466;2023-04-03T16:59:47;3.07;;;1.70;;
12972;SDS011;6551;51.056;9.466;2023-04-03T17:02:14;2.43;;;1.50;;